sensor_id;sensor_type;location;lat;lon;timestamp;pressure;altitude;pressure_sealevel;temperature;humidity
28354;BME280;15603;50.878;8.036;2023-07-20T00:00:15;146925.34;;;15.47;90.62
28354;BME280;15603;50.878;8.036;2023-07-20T00:02:42;146997.34;;;15.77;89.69
28354;BME280;15603;50.878;8.036;2023-07-20T00:05:09;146958.28;;;15.61;90.56
28354;BME280;15603;50.878;8.036;2023-07-20T00:07:37;146899.75;;;15.36;92.76
28354;BME280;15603;50.878;8.036;2023-07-20T00:10:04;146858.31;;;15.19;93.79
28354;BME280;15603;50.878;8.036;2023-07-20T00:12:31;146838.75;;;15.10;94.00
28354;BME280;15603;50.878;8.036;2023-07-20T00:14:58;146829.00;;;15.06;93.51
28354;BME280;15603;50.878;8.036;2023-07-20T00:17:25;146819.25;;;15.02;93.92
28354;BME280;15603;50.878;8.036;2023-07-20T00:19:53;146811.97;;;14.99;94.06
28354;BME280;15603;50.878;8.036;2023-07-20T00:22:20;146782.69;;;14.87;96.80
28354;BME280;15603;50.878;8.036;2023-07-20T00:24:47;146765.63;;;14.80;97.47
28354;BME280;15603;50.878;8.036;2023-07-20T00:27:14;146725.44;;;14.63;97.18
28354;BME280;15603;50.878;8.036;2023-07-20T00:29:41;146725.44;;;14.63;98.74
28354;BME280;15603;50.878;8.036;2023-07-20T00:32:08;146641.28;;;14.27;98.80
28354;BME280;15603;50.878;8.036;2023-07-20T00:34:35;146549.91;;;13.89;99.16
28354;BME280;15603;50.878;8.036;2023-07-20T00:37:03;146665.66;;;14.38;100.00
28354;BME280;15603;50.878;8.036;2023-07-20T00:39:30;146619.34;;;14.18;100.00
28354;BME280;15603;50.878;8.036;2023-07-20T00:41:58;146624.19;;;14.20;100.00
28354;BME280;15603;50.878;8.036;2023-07-20T00:44:25;146614.47;;;14.16;100.00
28354;BME280;15603;50.878;8.036;2023-07-20T00:46:52;146619.34;;;14.18;100.00
28354;BME280;15603;50.878;8.036;2023-07-20T00:49:19;146615.72;;;14.17;100.00
28354;BME280;15603;50.878;8.036;2023-07-20T00:51:48;146524.34;;;13.78;100.00
28354;BME280;15603;50.878;8.036;2023-07-20T00:54:16;146605.94;;;14.12;100.00
28354;BME280;15603;50.878;8.036;2023-07-20T00:56:44;146627.88;;;14.22;100.00
28354;BME280;15603;50.878;8.036;2023-07-20T00:59:13;146621.78;;;14.19;100.00
28354;BME280;15603;50.878;8.036;2023-07-20T01:01:40;146590.09;;;14.06;100.00
28354;BME280;15603;50.878;8.036;2023-07-20T01:04:08;146581.56;;;14.02;100.00
28354;BME280;15603;50.878;8.036;2023-07-20T01:09:13;146575.50;;;14.00;100.00
28354;BME280;15603;50.878;8.036;2023-07-20T01:14:27;146563.31;;;13.94;100.00
28354;BME280;15603;50.878;8.036;2023-07-20T01:16:54;146564.50;;;13.95;100.00
28354;BME280;15603;50.878;8.036;2023-07-20T01:19:21;146547.47;;;13.88;100.00
28354;BME280;15603;50.878;8.036;2023-07-20T01:21:59;146547.47;;;13.88;100.00
28354;BME280;15603;50.878;8.036;2023-07-20T01:25:04;146521.88;;;13.77;100.00
28354;BME280;15603;50.878;8.036;2023-07-20T01:33:38;146493.88;;;13.65;100.00
28354;BME280;15603;50.878;8.036;2023-07-20T01:36:07;146525.56;;;13.79;100.00
28354;BME280;15603;50.878;8.036;2023-07-20T01:38:36;146520.69;;;13.77;100.00
28354;BME280;15603;50.878;8.036;2023-07-20T01:41:04;146546.22;;;13.87;100.00
28354;BME280;15603;50.878;8.036;2023-07-20T01:43:31;146536.50;;;13.83;100.00
28354;BME280;15603;50.878;8.036;2023-07-20T01:45:58;146556.00;;;13.91;100.00
28354;BME280;15603;50.878;8.036;2023-07-20T01:48:27;146543.81;;;13.86;100.00
28354;BME280;15603;50.878;8.036;2023-07-20T01:50:54;146526.75;;;13.79;100.00
28354;BME280;15603;50.878;8.036;2023-07-20T01:53:22;146534.09;;;13.82;100.00
28354;BME280;15603;50.878;8.036;2023-07-20T01:55:49;146529.22;;;13.80;100.00
28354;BME280;15603;50.878;8.036;2023-07-20T01:58:16;146548.69;;;13.88;100.00
28354;BME280;15603;50.878;8.036;2023-07-20T02:00:43;146487.81;;;13.63;100.00
28354;BME280;15603;50.878;8.036;2023-07-20T02:03:10;146529.22;;;13.80;100.00
28354;BME280;15603;50.878;8.036;2023-07-20T02:05:39;146545.03;;;13.87;100.00
28354;BME280;15603;50.878;8.036;2023-07-20T02:08:06;146588.91;;;14.05;100.00
28354;BME280;15603;50.878;8.036;2023-07-20T02:10:33;146512.16;;;13.73;100.00
28354;BME280;15603;50.878;8.036;2023-07-20T02:13:00;146619.34;;;14.18;100.00
28354;BME280;15603;50.878;8.036;2023-07-20T02:15:27;146581.56;;;14.02;100.00
28354;BME280;15603;50.878;8.036;2023-07-20T02:17:55;146599.84;;;14.10;100.00
28354;BME280;15603;50.878;8.036;2023-07-20T02:20:22;146568.16;;;13.97;100.00
28354;BME280;15603;50.878;8.036;2023-07-20T02:22:50;146623.00;;;14.20;100.00
28354;BME280;15603;50.878;8.036;2023-07-20T02:25:17;146662.00;;;14.36;99.92
28354;BME280;15603;50.878;8.036;2023-07-20T02:27:46;146636.41;;;14.25;100.00
28354;BME280;15603;50.878;8.036;2023-07-20T02:30:13;146643.72;;;14.28;100.00
28354;BME280;15603;50.878;8.036;2023-07-20T02:32:40;146636.41;;;14.25;100.00
28354;BME280;15603;50.878;8.036;2023-07-20T02:35:07;146677.81;;;14.43;100.00
28354;BME280;15603;50.878;8.036;2023-07-20T02:37:34;146659.56;;;14.35;100.00
28354;BME280;15603;50.878;8.036;2023-07-20T02:40:02;146658.34;;;14.34;100.00
28354;BME280;15603;50.878;8.036;2023-07-20T02:42:34;146665.66;;;14.38;100.00
28354;BME280;15603;50.878;8.036;2023-07-20T02:45:02;146621.78;;;14.19;100.00
28354;BME280;15603;50.878;8.036;2023-07-20T02:47:31;146712.03;;;14.57;99.98
28354;BME280;15603;50.878;8.036;2023-07-20T02:49:58;146626.66;;;14.21;100.00
28354;BME280;15603;50.878;8.036;2023-07-20T02:52:26;146663.22;;;14.37;100.00
28354;BME280;15603;50.878;8.036;2023-07-20T02:54:53;146681.50;;;14.44;100.00
28354;BME280;15603;50.878;8.036;2023-07-20T02:57:20;146680.28;;;14.44;100.00
28354;BME280;15603;50.878;8.036;2023-07-20T02:59:47;146666.88;;;14.38;100.00
28354;BME280;15603;50.878;8.036;2023-07-20T03:02:14;146615.72;;;14.17;100.00
28354;BME280;15603;50.878;8.036;2023-07-20T03:04:42;146619.34;;;14.18;100.00
28354;BME280;15603;50.878;8.036;2023-07-20T03:07:09;146643.72;;;14.28;100.00
28354;BME280;15603;50.878;8.036;2023-07-20T03:09:36;146658.34;;;14.34;100.00
28354;BME280;15603;50.878;8.036;2023-07-20T03:12:03;146605.94;;;14.12;100.00
28354;BME280;15603;50.878;8.036;2023-07-20T03:14:31;146587.66;;;14.05;100.00
28354;BME280;15603;50.878;8.036;2023-07-20T03:16:59;146569.38;;;13.97;100.00
28354;BME280;15603;50.878;8.036;2023-07-20T03:19:26;146564.50;;;13.95;100.00
28354;BME280;15603;50.878;8.036;2023-07-20T03:21:55;146521.88;;;13.77;100.00
28354;BME280;15603;50.878;8.036;2023-07-20T03:24:22;146542.63;;;13.86;100.00
28354;BME280;15603;50.878;8.036;2023-07-20T03:26:50;146540.16;;;13.85;100.00
28354;BME280;15603;50.878;8.036;2023-07-20T03:29:18;146495.09;;;13.66;100.00
28354;BME280;15603;50.878;8.036;2023-07-20T03:31:46;146546.22;;;13.87;100.00
28354;BME280;15603;50.878;8.036;2023-07-20T03:34:13;146530.41;;;13.81;100.00
28354;BME280;15603;50.878;8.036;2023-07-20T03:36:42;146527.97;;;13.80;100.00
28354;BME280;15603;50.878;8.036;2023-07-20T03:39:11;146524.34;;;13.78;100.00
28354;BME280;15603;50.878;8.036;2023-07-20T03:41:38;146548.69;;;13.88;100.00
28354;BME280;15603;50.878;8.036;2023-07-20T03:44:05;146560.88;;;13.93;100.00
28354;BME280;15603;50.878;8.036;2023-07-20T03:46:32;146573.03;;;13.99;100.00
28354;BME280;15603;50.878;8.036;2023-07-20T03:49:01;146603.50;;;14.11;100.00
28354;BME280;15603;50.878;8.036;2023-07-20T03:51:28;146605.94;;;14.12;100.00
28354;BME280;15603;50.878;8.036;2023-07-20T03:53:57;146597.44;;;14.09;100.00
28354;BME280;15603;50.878;8.036;2023-07-20T03:56:25;146590.09;;;14.06;100.00
28354;BME280;15603;50.878;8.036;2023-07-20T03:58:52;146648.59;;;14.30;100.00
28354;BME280;15603;50.878;8.036;2023-07-20T04:01:19;146698.56;;;14.51;100.00
28354;BME280;15603;50.878;8.036;2023-07-20T04:03:46;146658.34;;;14.34;100.00
28354;BME280;15603;50.878;8.036;2023-07-20T04:06:16;146660.75;;;14.36;100.00
28354;BME280;15603;50.878;8.036;2023-07-20T04:08:44;146605.94;;;14.12;100.00
28354;BME280;15603;50.878;8.036;2023-07-20T04:11:14;146594.97;;;14.08;100.00
28354;BME280;15603;50.878;8.036;2023-07-20T04:13:41;146609.59;;;14.14;100.00
28354;BME280;15603;50.878;8.036;2023-07-20T04:16:08;146502.41;;;13.69;100.00
28354;BME280;15603;50.878;8.036;2023-07-20T04:18:35;146537.75;;;13.84;100.00
28354;BME280;15603;50.878;8.036;2023-07-20T04:21:02;146524.34;;;13.78;100.00
28354;BME280;15603;50.878;8.036;2023-07-20T04:23:29;146580.38;;;14.02;100.00
28354;BME280;15603;50.878;8.036;2023-07-20T04:25:56;146563.31;;;13.94;100.00
28354;BME280;15603;50.878;8.036;2023-07-20T04:28:24;146568.16;;;13.97;100.00
28354;BME280;15603;50.878;8.036;2023-07-20T04:30:52;146594.97;;;14.08;100.00
28354;BME280;15603;50.878;8.036;2023-07-20T04:33:19;146580.38;;;14.02;100.00
28354;BME280;15603;50.878;8.036;2023-07-20T04:35:51;146601.06;;;14.10;100.00
28354;BME280;15603;50.878;8.036;2023-07-20T04:38:22;146588.91;;;14.05;100.00
28354;BME280;15603;50.878;8.036;2023-07-20T04:40:59;146592.56;;;14.07;100.00
28354;BME280;15603;50.878;8.036;2023-07-20T04:43:29;146638.84;;;14.26;100.00
28354;BME280;15603;50.878;8.036;2023-07-20T04:45:56;146638.84;;;14.26;100.00
28354;BME280;15603;50.878;8.036;2023-07-20T04:48:23;146659.56;;;14.35;100.00
28354;BME280;15603;50.878;8.036;2023-07-20T04:50:53;146702.22;;;14.53;100.00
28354;BME280;15603;50.878;8.036;2023-07-20T04:53:20;146719.31;;;14.60;100.00
28354;BME280;15603;50.878;8.036;2023-07-20T04:55:49;146712.03;;;14.57;100.00
28354;BME280;15603;50.878;8.036;2023-07-20T04:58:23;146649.81;;;14.31;100.00
28354;BME280;15603;50.878;8.036;2023-07-20T05:00:51;146691.22;;;14.48;100.00
28354;BME280;15603;50.878;8.036;2023-07-20T05:03:19;146751.00;;;14.73;100.00
28354;BME280;15603;50.878;8.036;2023-07-20T05:05:47;146782.69;;;14.87;100.00
28354;BME280;15603;50.878;8.036;2023-07-20T05:08:16;146747.34;;;14.72;100.00
28354;BME280;15603;50.878;8.036;2023-07-20T05:10:44;146765.63;;;14.80;100.00
28354;BME280;15603;50.878;8.036;2023-07-20T05:13:11;146811.97;;;14.99;100.00
28354;BME280;15603;50.878;8.036;2023-07-20T05:15:38;146804.66;;;14.96;100.00
28354;BME280;15603;50.878;8.036;2023-07-20T05:18:10;146786.34;;;14.88;100.00
28354;BME280;15603;50.878;8.036;2023-07-20T05:20:37;146775.41;;;14.84;100.00
28354;BME280;15603;50.878;8.036;2023-07-20T05:23:04;146804.66;;;14.96;100.00
28354;BME280;15603;50.878;8.036;2023-07-20T05:25:32;146844.88;;;15.13;100.00
28354;BME280;15603;50.878;8.036;2023-07-20T05:27:59;146860.72;;;15.20;100.00
28354;BME280;15603;50.878;8.036;2023-07-20T05:30:27;146897.28;;;15.35;100.00
28354;BME280;15603;50.878;8.036;2023-07-20T05:32:56;146985.09;;;15.72;100.00
28354;BME280;15603;50.878;8.036;2023-07-20T05:35:23;147059.56;;;16.03;100.00
28354;BME280;15603;50.878;8.036;2023-07-20T05:37:50;147014.44;;;15.84;100.00
28354;BME280;15603;50.878;8.036;2023-07-20T05:40:18;146990.00;;;15.74;100.00
28354;BME280;15603;50.878;8.036;2023-07-20T05:42:47;147013.19;;;15.84;100.00
28354;BME280;15603;50.878;8.036;2023-07-20T05:45:15;147042.47;;;15.96;99.72
28354;BME280;15603;50.878;8.036;2023-07-20T05:47:43;147009.56;;;15.82;100.00
28354;BME280;15603;50.878;8.036;2023-07-20T05:50:10;146994.94;;;15.76;99.31
28354;BME280;15603;50.878;8.036;2023-07-20T05:52:37;147051.03;;;16.00;100.00
28354;BME280;15603;50.878;8.036;2023-07-20T05:55:06;147046.16;;;15.98;98.38
28354;BME280;15603;50.878;8.036;2023-07-20T05:57:34;146999.81;;;15.78;100.00
28354;BME280;15603;50.878;8.036;2023-07-20T06:00:02;147058.31;;;16.03;98.82
28354;BME280;15603;50.878;8.036;2023-07-20T06:02:38;146975.34;;;15.68;98.68
28354;BME280;15603;50.878;8.036;2023-07-20T06:05:07;147021.72;;;15.87;100.00
28354;BME280;15603;50.878;8.036;2023-07-20T06:07:37;147033.94;;;15.93;99.87
28354;BME280;15603;50.878;8.036;2023-07-20T06:10:05;147087.63;;;16.15;99.47
28354;BME280;15603;50.878;8.036;2023-07-20T06:12:32;147093.72;;;16.18;97.61
28354;BME280;15603;50.878;8.036;2023-07-20T06:15:04;147073.00;;;16.09;99.90
28354;BME280;15603;50.878;8.036;2023-07-20T06:17:32;147096.16;;;16.19;96.15
28354;BME280;15603;50.878;8.036;2023-07-20T06:19:59;147058.31;;;16.03;99.01
28354;BME280;15603;50.878;8.036;2023-07-20T06:22:27;147101.06;;;16.21;99.29
28354;BME280;15603;50.878;8.036;2023-07-20T06:24:54;147133.97;;;16.35;97.15
28354;BME280;15603;50.878;8.036;2023-07-20T06:27:21;147132.78;;;16.34;95.76
28354;BME280;15603;50.878;8.036;2023-07-20T06:29:48;147147.41;;;16.40;95.94
28354;BME280;15603;50.878;8.036;2023-07-20T06:32:15;147129.09;;;16.33;94.48
28354;BME280;15603;50.878;8.036;2023-07-20T06:34:42;147151.06;;;16.42;93.41
28354;BME280;15603;50.878;8.036;2023-07-20T06:37:09;147163.25;;;16.47;92.58
28354;BME280;15603;50.878;8.036;2023-07-20T06:39:36;147204.72;;;16.64;90.59
28354;BME280;15603;50.878;8.036;2023-07-20T06:42:07;147270.72;;;16.92;88.76
28354;BME280;15603;50.878;8.036;2023-07-20T06:44:34;147278.00;;;16.95;87.57
28354;BME280;15603;50.878;8.036;2023-07-20T06:47:01;147285.34;;;16.98;87.12
28354;BME280;15603;50.878;8.036;2023-07-20T06:49:28;147284.16;;;16.98;89.98
28354;BME280;15603;50.878;8.036;2023-07-20T06:51:56;147269.47;;;16.92;89.58
28354;BME280;15603;50.878;8.036;2023-07-20T06:54:23;147307.34;;;17.07;87.15
28354;BME280;15603;50.878;8.036;2023-07-20T06:56:51;147246.28;;;16.82;88.43
28354;BME280;15603;50.878;8.036;2023-07-20T06:59:21;147209.63;;;16.66;89.69
28354;BME280;15603;50.878;8.036;2023-07-20T07:01:48;147224.28;;;16.73;90.72
28354;BME280;15603;50.878;8.036;2023-07-20T07:04:15;147180.34;;;16.54;91.40
28354;BME280;15603;50.878;8.036;2023-07-20T07:06:43;147248.75;;;16.83;91.47
28354;BME280;15603;50.878;8.036;2023-07-20T07:09:11;147271.94;;;16.93;86.85
28354;BME280;15603;50.878;8.036;2023-07-20T07:11:38;147297.56;;;17.03;86.61
28354;BME280;15603;50.878;8.036;2023-07-20T07:14:05;147353.72;;;17.27;85.77
28354;BME280;15603;50.878;8.036;2023-07-20T07:16:32;147375.72;;;17.36;84.31
28354;BME280;15603;50.878;8.036;2023-07-20T07:19:05;147315.88;;;17.11;83.50
28354;BME280;15603;50.878;8.036;2023-07-20T07:21:32;147267.03;;;16.91;83.80
28354;BME280;15603;50.878;8.036;2023-07-20T07:23:59;147301.19;;;17.05;83.60
28354;BME280;15603;50.878;8.036;2023-07-20T07:26:27;147402.56;;;17.48;81.97
28354;BME280;15603;50.878;8.036;2023-07-20T07:28:54;147405.00;;;17.49;78.67
28354;BME280;15603;50.878;8.036;2023-07-20T07:31:21;147480.72;;;17.80;80.44
28354;BME280;15603;50.878;8.036;2023-07-20T07:33:48;147501.50;;;17.89;80.28
28354;BME280;15603;50.878;8.036;2023-07-20T07:36:15;147522.28;;;17.98;79.21
28354;BME280;15603;50.878;8.036;2023-07-20T07:38:42;147534.47;;;18.03;79.64
28354;BME280;15603;50.878;8.036;2023-07-20T07:41:13;147387.88;;;17.41;77.90
28354;BME280;15603;50.878;8.036;2023-07-20T07:43:41;147402.56;;;17.48;80.02
28354;BME280;15603;50.878;8.036;2023-07-20T07:46:08;147336.63;;;17.20;83.00
28354;BME280;15603;50.878;8.036;2023-07-20T07:48:35;147439.22;;;17.63;79.60
28354;BME280;15603;50.878;8.036;2023-07-20T07:51:02;147429.41;;;17.59;79.26
28354;BME280;15603;50.878;8.036;2023-07-20T07:53:32;147532.06;;;18.02;78.11
28354;BME280;15603;50.878;8.036;2023-07-20T07:55:59;147593.13;;;18.28;76.92
28354;BME280;15603;50.878;8.036;2023-07-20T07:58:27;147690.84;;;18.69;75.40
28354;BME280;15603;50.878;8.036;2023-07-20T08:00:54;147659.13;;;18.55;72.84
28354;BME280;15603;50.878;8.036;2023-07-20T08:03:21;147683.53;;;18.66;72.50
28354;BME280;15603;50.878;8.036;2023-07-20T08:05:51;147673.78;;;18.61;75.11
28354;BME280;15603;50.878;8.036;2023-07-20T08:08:19;147736.13;;;18.88;73.29
28354;BME280;15603;50.878;8.036;2023-07-20T08:10:46;147678.66;;;18.63;69.33
28354;BME280;15603;50.878;8.036;2023-07-20T08:13:14;147519.81;;;17.97;70.97
28354;BME280;15603;50.878;8.036;2023-07-20T08:15:49;147634.66;;;18.45;70.75
28354;BME280;15603;50.878;8.036;2023-07-20T08:18:17;147645.66;;;18.50;71.61
28354;BME280;15603;50.878;8.036;2023-07-20T08:20:44;147654.19;;;18.53;74.64
28354;BME280;15603;50.878;8.036;2023-07-20T08:23:12;147733.69;;;18.87;74.64
28354;BME280;15603;50.878;8.036;2023-07-20T08:25:40;147805.81;;;19.17;70.33
28354;BME280;15603;50.878;8.036;2023-07-20T08:28:12;147832.66;;;19.28;71.02
28354;BME280;15603;50.878;8.036;2023-07-20T08:30:46;147925.59;;;19.67;67.26
28354;BME280;15603;50.878;8.036;2023-07-20T08:33:16;147783.81;;;19.08;65.13
28354;BME280;15603;50.878;8.036;2023-07-20T08:35:43;147886.47;;;19.51;66.96
28354;BME280;15603;50.878;8.036;2023-07-20T08:38:10;147791.09;;;19.11;68.64
28354;BME280;15603;50.878;8.036;2023-07-20T08:40:42;147752.03;;;18.94;67.94
28354;BME280;15603;50.878;8.036;2023-07-20T08:43:13;147654.19;;;18.53;70.36
28354;BME280;15603;50.878;8.036;2023-07-20T08:45:41;147685.97;;;18.67;69.38
28354;BME280;15603;50.878;8.036;2023-07-20T08:48:08;147650.56;;;18.52;68.56
28354;BME280;15603;50.878;8.036;2023-07-20T08:50:37;147745.88;;;18.92;67.94
28354;BME280;15603;50.878;8.036;2023-07-20T08:53:06;147748.34;;;18.93;68.82
28354;BME280;15603;50.878;8.036;2023-07-20T08:55:34;147720.25;;;18.81;67.26
28354;BME280;15603;50.878;8.036;2023-07-20T08:58:02;147683.53;;;18.66;69.78
28354;BME280;15603;50.878;8.036;2023-07-20T09:00:30;147777.66;;;19.05;66.29
28354;BME280;15603;50.878;8.036;2023-07-20T09:02:58;147884.03;;;19.50;65.27
28354;BME280;15603;50.878;8.036;2023-07-20T09:05:27;147901.13;;;19.57;63.92
28354;BME280;15603;50.878;8.036;2023-07-20T09:07:54;147875.47;;;19.46;67.63
28354;BME280;15603;50.878;8.036;2023-07-20T09:10:23;147887.69;;;19.51;66.37
28354;BME280;15603;50.878;8.036;2023-07-20T09:12:51;147925.59;;;19.67;65.23
28354;BME280;15603;50.878;8.036;2023-07-20T09:15:21;147898.69;;;19.56;64.48
28354;BME280;15603;50.878;8.036;2023-07-20T09:17:51;147857.16;;;19.38;64.51
28354;BME280;15603;50.878;8.036;2023-07-20T09:20:20;147935.38;;;19.71;61.98
28354;BME280;15603;50.878;8.036;2023-07-20T09:22:50;147975.78;;;19.88;59.68
28354;BME280;15603;50.878;8.036;2023-07-20T09:25:19;148066.25;;;20.26;59.53
28354;BME280;15603;50.878;8.036;2023-07-20T09:27:49;148182.53;;;20.75;58.14
28354;BME280;15603;50.878;8.036;2023-07-20T09:30:18;148113.97;;;20.46;57.62
28354;BME280;15603;50.878;8.036;2023-07-20T09:32:48;148099.31;;;20.40;56.64
28354;BME280;15603;50.878;8.036;2023-07-20T09:35:20;148105.41;;;20.43;58.75
28354;BME280;15603;50.878;8.036;2023-07-20T09:38:08;147995.34;;;19.96;59.37
28354;BME280;15603;50.878;8.036;2023-07-20T09:40:39;147947.63;;;19.76;65.70
28354;BME280;15603;50.878;8.036;2023-07-20T09:43:10;147936.63;;;19.72;62.06
28354;BME280;15603;50.878;8.036;2023-07-20T09:45:41;147959.88;;;19.81;63.48
28354;BME280;15603;50.878;8.036;2023-07-20T09:48:11;147970.91;;;19.86;60.88
28354;BME280;15603;50.878;8.036;2023-07-20T09:50:49;147967.22;;;19.85;59.82
28354;BME280;15603;50.878;8.036;2023-07-20T09:53:18;147954.97;;;19.79;61.12
28354;BME280;15603;50.878;8.036;2023-07-20T09:55:47;147950.09;;;19.77;59.95
28354;BME280;15603;50.878;8.036;2023-07-20T09:58:15;148002.66;;;19.99;59.93
28354;BME280;15603;50.878;8.036;2023-07-20T10:00:44;147978.22;;;19.89;58.55
28354;BME280;15603;50.878;8.036;2023-07-20T10:03:21;147959.88;;;19.81;58.00
28354;BME280;15603;50.878;8.036;2023-07-20T10:05:54;148006.34;;;20.01;58.08
28354;BME280;15603;50.878;8.036;2023-07-20T10:08:25;147870.59;;;19.44;56.36
28354;BME280;15603;50.878;8.036;2023-07-20T10:10:57;147902.38;;;19.57;56.66
28354;BME280;15603;50.878;8.036;2023-07-20T10:13:27;147855.88;;;19.38;58.83
28354;BME280;15603;50.878;8.036;2023-07-20T10:15:59;147852.25;;;19.36;60.99
28354;BME280;15603;50.878;8.036;2023-07-20T10:21:11;147940.31;;;19.73;60.27
28354;BME280;15603;50.878;8.036;2023-07-20T10:23:41;147978.22;;;19.89;58.97
28354;BME280;15603;50.878;8.036;2023-07-20T10:26:09;148044.28;;;20.17;60.76
28354;BME280;15603;50.878;8.036;2023-07-20T10:28:38;147975.78;;;19.88;60.88
28354;BME280;15603;50.878;8.036;2023-07-20T10:31:08;148065.03;;;20.26;60.79
28354;BME280;15603;50.878;8.036;2023-07-20T10:33:37;147988.00;;;19.93;60.59
28354;BME280;15603;50.878;8.036;2023-07-20T10:36:06;147945.22;;;19.75;61.98
28354;BME280;15603;50.878;8.036;2023-07-20T10:38:52;147857.16;;;19.38;64.11
28354;BME280;15603;50.878;8.036;2023-07-20T10:41:22;147798.47;;;19.14;65.75
28354;BME280;15603;50.878;8.036;2023-07-20T10:44:09;147891.34;;;19.53;62.04
28354;BME280;15603;50.878;8.036;2023-07-20T10:49:08;148032.03;;;20.12;62.19
28354;BME280;15603;50.878;8.036;2023-07-20T10:51:46;148079.72;;;20.32;60.34
28354;BME280;15603;50.878;8.036;2023-07-20T10:56:47;148192.31;;;20.79;58.96
28354;BME280;15603;50.878;8.036;2023-07-20T10:59:35;148248.59;;;21.03;56.74
28354;BME280;15603;50.878;8.036;2023-07-20T11:02:09;148162.94;;;20.67;54.91
28354;BME280;15603;50.878;8.036;2023-07-20T11:04:40;148121.31;;;20.49;54.91
28354;BME280;15603;50.878;8.036;2023-07-20T11:07:08;148096.84;;;20.39;55.51
28354;BME280;15603;50.878;8.036;2023-07-20T11:09:36;148023.47;;;20.08;55.96
28354;BME280;15603;50.878;8.036;2023-07-20T11:12:16;148062.63;;;20.25;54.69
28354;BME280;15603;50.878;8.036;2023-07-20T11:14:53;148056.47;;;20.22;54.75
28354;BME280;15603;50.878;8.036;2023-07-20T11:17:29;148089.50;;;20.36;55.27
28354;BME280;15603;50.878;8.036;2023-07-20T11:20:00;148055.28;;;20.22;54.05
28354;BME280;15603;50.878;8.036;2023-07-20T11:22:31;148101.75;;;20.41;55.85
28354;BME280;15603;50.878;8.036;2023-07-20T11:24:58;148182.53;;;20.75;53.00
28354;BME280;15603;50.878;8.036;2023-07-20T11:27:25;148180.06;;;20.74;52.84
28354;BME280;15603;50.878;8.036;2023-07-20T11:29:54;148312.22;;;21.29;52.79
28354;BME280;15603;50.878;8.036;2023-07-20T11:32:21;148395.50;;;21.64;49.30
28354;BME280;15603;50.878;8.036;2023-07-20T11:34:49;148361.25;;;21.50;49.14
28354;BME280;15603;50.878;8.036;2023-07-20T11:37:17;148405.28;;;21.68;51.37
28354;BME280;15603;50.878;8.036;2023-07-20T11:39:45;148355.09;;;21.47;53.26
28354;BME280;15603;50.878;8.036;2023-07-20T11:42:13;148309.78;;;21.28;52.23
28354;BME280;15603;50.878;8.036;2023-07-20T11:45:05;148415.09;;;21.72;51.27
28354;BME280;15603;50.878;8.036;2023-07-20T11:47:33;148407.75;;;21.69;52.04
28354;BME280;15603;50.878;8.036;2023-07-20T11:50:03;148346.53;;;21.44;51.09
28354;BME280;15603;50.878;8.036;2023-07-20T11:52:31;148505.69;;;22.10;50.27
28354;BME280;15603;50.878;8.036;2023-07-20T11:54:58;148516.69;;;22.15;50.34
28354;BME280;15603;50.878;8.036;2023-07-20T11:57:25;148362.47;;;21.50;53.28
28354;BME280;15603;50.878;8.036;2023-07-20T12:02:24;148214.34;;;20.88;54.79
28354;BME280;15603;50.878;8.036;2023-07-20T12:04:55;148183.75;;;20.75;52.93
28354;BME280;15603;50.878;8.036;2023-07-20T12:07:23;148091.97;;;20.37;52.53
28354;BME280;15603;50.878;8.036;2023-07-20T12:12:43;148183.75;;;20.75;52.85
28354;BME280;15603;50.878;8.036;2023-07-20T12:15:24;148170.28;;;20.70;51.02
28354;BME280;15603;50.878;8.036;2023-07-20T12:17:53;148142.13;;;20.58;51.04
28354;BME280;15603;50.878;8.036;2023-07-20T12:20:29;148111.53;;;20.45;50.50
28354;BME280;15603;50.878;8.036;2023-07-20T12:23:00;148150.72;;;20.62;50.63
28354;BME280;15603;50.878;8.036;2023-07-20T12:28:01;148258.38;;;21.07;50.54
28354;BME280;15603;50.878;8.036;2023-07-20T12:30:29;148202.09;;;20.83;49.95
28354;BME280;15603;50.878;8.036;2023-07-20T12:32:56;148213.09;;;20.88;51.05
28354;BME280;15603;50.878;8.036;2023-07-20T12:35:24;148211.88;;;20.87;50.72
28354;BME280;15603;50.878;8.036;2023-07-20T12:37:51;148106.63;;;20.43;50.04
28354;BME280;15603;50.878;8.036;2023-07-20T12:40:18;148287.78;;;21.19;52.54
28354;BME280;15603;50.878;8.036;2023-07-20T12:42:45;148274.31;;;21.13;49.54
28354;BME280;15603;50.878;8.036;2023-07-20T12:45:13;148177.66;;;20.73;49.17
28354;BME280;15603;50.878;8.036;2023-07-20T12:47:41;148243.69;;;21.01;50.78
28354;BME280;15603;50.878;8.036;2023-07-20T12:50:10;148218.00;;;20.90;49.69
28354;BME280;15603;50.878;8.036;2023-07-20T12:52:39;148133.53;;;20.54;50.60
28354;BME280;15603;50.878;8.036;2023-07-20T12:55:08;148211.88;;;20.87;50.90
28354;BME280;15603;50.878;8.036;2023-07-20T12:57:36;148265.75;;;21.10;50.28
28354;BME280;15603;50.878;8.036;2023-07-20T13:00:05;148307.34;;;21.27;49.27
28354;BME280;15603;50.878;8.036;2023-07-20T13:02:35;148455.50;;;21.89;48.09
28354;BME280;15603;50.878;8.036;2023-07-20T13:05:03;148544.94;;;22.27;45.96
28354;BME280;15603;50.878;8.036;2023-07-20T13:10:02;148638.00;;;22.66;44.92
28354;BME280;15603;50.878;8.036;2023-07-20T13:12:32;148510.59;;;22.12;44.46
28354;BME280;15603;50.878;8.036;2023-07-20T13:15:01;148598.78;;;22.49;43.96
28354;BME280;15603;50.878;8.036;2023-07-20T13:17:29;148363.69;;;21.51;45.17
28354;BME280;15603;50.878;8.036;2023-07-20T13:19:56;148334.28;;;21.38;45.31
28354;BME280;15603;50.878;8.036;2023-07-20T13:22:24;148419.97;;;21.74;47.83